KSJN/SJN METAR and TAF weather

Enter ICAO airport designator
Station Type Date Time Source
KSJN METAR 2019/10/14 05:54 UTC NOAA

KSJN 140554Z AUTO 19003KT 10SM CLR 10/M06 A3009 RMK AO2 SLP122 T01001061 10233 20083 50006


Station Type Date Time Source
KSJN Decoded METAR 2019/10/14 05:54 UTC NOAA

ST JOHNS INDUSTRIAL AIRPRK, AZ, United States (KSJN) 34-31N 109-23W 1745M
Oct 14, 2019 - 01:54 AM EDT / 2019.10.14 0554 UTC
Wind: from the S (190 degrees) at 3 MPH (3 KT):0
Visibility: 10 mile(s):0
Sky conditions: clear
Temperature: 50.0 F (10.0 C)
Dew Point: 21.0 F (-6.1 C)
Relative Humidity: 31%
Pressure (altimeter): 30.09 in. Hg (1018 hPa)
Pressure tendency: 0.02 inches (0.6 hPa) higher than three hours ago
ob: KSJN 140554Z AUTO 19003KT 10SM CLR 10/M06 A3009 RMK AO2 SLP122 T01001061 10233 20083 50006
cycle: 6

Station Type Date Time Source
KSJN TAF UTC NOAA

Error!

Example: see airport list